createdAt,value
2023-12-08T00:02:16.330Z,24.35
2023-12-08T00:04:44.328Z,23.50
2023-12-08T00:07:12.305Z,21.87
2023-12-08T00:09:40.205Z,24.30
2023-12-08T00:12:08.486Z,21.33
2023-12-08T00:14:36.256Z,21.48
2023-12-08T00:17:04.309Z,21.00
2023-12-08T00:19:32.784Z,22.20
2023-12-08T00:22:00.605Z,22.40
2023-12-08T00:24:28.806Z,23.45
2023-12-08T00:26:56.842Z,22.15
2023-12-08T00:29:24.758Z,23.60
2023-12-08T00:31:53.927Z,21.42
2023-12-08T00:34:22.170Z,20.83
2023-12-08T00:36:51.423Z,21.48
2023-12-08T00:39:20.004Z,21.10
2023-12-08T00:41:48.077Z,21.75
2023-12-08T00:44:16.240Z,20.23
2023-12-08T00:46:44.133Z,23.48
2023-12-08T00:49:12.324Z,20.70
2023-12-08T00:51:40.089Z,22.70
2023-12-08T00:54:07.864Z,20.58
2023-12-08T00:56:36.017Z,22.70
2023-12-08T00:59:03.802Z,22.35
2023-12-08T01:01:31.705Z,21.10
2023-12-08T01:03:59.982Z,21.67
2023-12-08T01:06:27.747Z,22.83
2023-12-08T01:08:55.555Z,25.12
2023-12-08T01:11:23.644Z,23.85
2023-12-08T01:13:51.621Z,24.17
2023-12-08T01:16:19.363Z,22.87
2023-12-08T01:18:47.706Z,22.08
2023-12-08T01:21:15.693Z,20.55
2023-12-08T01:23:43.675Z,22.90
2023-12-08T01:26:11.700Z,21.85
2023-12-08T01:28:39.515Z,21.45
2023-12-08T01:31:07.441Z,22.00
2023-12-08T01:33:35.620Z,23.00
2023-12-08T01:36:38.310Z,21.87
2023-12-08T01:38:52.047Z,21.52
2023-12-08T01:41:20.175Z,20.12
2023-12-08T01:43:47.975Z,22.02
2023-12-08T01:46:17.600Z,20.65
2023-12-08T01:48:45.972Z,21.48
2023-12-08T01:51:17.165Z,23.17
2023-12-08T01:53:46.888Z,23.73
2023-12-08T01:56:16.783Z,24.50
2023-12-08T01:58:45.855Z,27.67
2023-12-08T02:01:14.199Z,27.10
2023-12-08T02:03:42.948Z,27.20
2023-12-08T02:06:11.022Z,25.67
2023-12-08T02:08:39.493Z,24.05
2023-12-08T02:11:07.731Z,25.30
2023-12-08T02:13:35.526Z,25.55
2023-12-08T02:16:19.821Z,24.17
2023-12-08T02:18:48.599Z,22.33
2023-12-08T02:21:16.939Z,21.83
2023-12-08T02:23:48.574Z,20.37
2023-12-08T02:26:17.866Z,22.60
2023-12-08T02:28:45.803Z,20.98
2023-12-08T02:31:17.041Z,22.13
2023-12-08T02:33:47.997Z,20.12
2023-12-08T02:36:19.573Z,18.70
2023-12-08T02:38:52.201Z,19.83
2023-12-08T02:41:21.510Z,18.02
2023-12-08T02:43:49.525Z,21.15
2023-12-08T02:46:17.282Z,21.37
2023-12-08T02:48:54.140Z,19.87
2023-12-08T02:51:23.534Z,17.52
2023-12-08T02:53:51.423Z,17.50
2023-12-08T02:56:20.676Z,17.73
2023-12-08T02:58:48.678Z,18.70
2023-12-08T03:01:17.902Z,18.92
2023-12-08T03:03:46.021Z,19.40
2023-12-08T03:06:15.110Z,17.73
2023-12-08T03:08:43.806Z,19.52
2023-12-08T03:11:11.102Z,19.98
2023-12-08T03:13:39.469Z,18.83
2023-12-08T03:16:09.728Z,16.83
2023-12-08T03:18:37.686Z,18.10
2023-12-08T03:21:06.176Z,18.67
2023-12-08T03:23:35.747Z,19.40
2023-12-08T03:26:03.924Z,16.77
2023-12-08T03:28:32.005Z,18.90
2023-12-08T03:30:59.743Z,17.55
2023-12-08T03:33:27.579Z,17.83
2023-12-08T03:35:55.765Z,17.73
2023-12-08T03:38:23.966Z,17.77
2023-12-08T03:40:51.725Z,17.23
2023-12-08T03:43:20.241Z,17.37
2023-12-08T03:45:48.099Z,18.83
2023-12-08T03:48:16.141Z,20.33
2023-12-08T03:50:44.354Z,18.48
2023-12-08T03:53:12.046Z,18.12
2023-12-08T03:55:39.816Z,20.25
2023-12-08T03:58:07.920Z,18.70
2023-12-08T04:00:36.471Z,19.73
2023-12-08T04:03:05.049Z,17.87
2023-12-08T04:05:32.909Z,19.30
2023-12-08T04:08:00.942Z,17.95
2023-12-08T04:10:29.570Z,17.30
2023-12-08T04:12:57.354Z,16.23
2023-12-08T04:15:25.738Z,17.87
2023-12-08T04:17:54.352Z,18.60
2023-12-08T04:20:22.166Z,18.70
2023-12-08T04:22:49.434Z,18.90
2023-12-08T04:25:19.787Z,16.52
2023-12-08T04:27:47.559Z,15.43
2023-12-08T04:30:15.511Z,17.75
2023-12-08T04:32:43.800Z,16.55
2023-12-08T04:35:11.596Z,18.33
2023-12-08T04:37:39.328Z,17.80
2023-12-08T04:40:08.180Z,17.25
2023-12-08T04:42:41.460Z,17.48
2023-12-08T04:45:11.383Z,17.42
2023-12-08T04:47:39.472Z,16.77
2023-12-08T04:50:08.016Z,18.42
2023-12-08T04:52:36.173Z,18.67
2023-12-08T04:55:07.907Z,18.30
2023-12-08T04:57:36.240Z,16.73
2023-12-08T05:00:05.490Z,17.60
2023-12-08T05:02:33.786Z,17.92
2023-12-08T05:05:02.226Z,16.67
2023-12-08T05:07:30.381Z,17.20
2023-12-08T05:09:58.185Z,15.68
2023-12-08T05:12:26.217Z,16.42
2023-12-08T05:14:54.018Z,17.05
2023-12-08T05:17:23.584Z,17.33
2023-12-08T05:19:51.797Z,16.48
2023-12-08T05:22:19.647Z,16.98
2023-12-08T05:24:47.337Z,17.10
2023-12-08T05:27:16.291Z,18.33
2023-12-08T05:29:44.131Z,20.42
2023-12-08T05:32:11.912Z,19.05
2023-12-08T05:34:40.363Z,19.17
2023-12-08T05:37:08.222Z,19.27
2023-12-08T05:39:35.973Z,17.92
2023-12-08T05:42:04.273Z,17.98
2023-12-08T05:44:32.133Z,17.23
2023-12-08T05:47:01.342Z,17.50
2023-12-08T05:49:30.382Z,21.00
2023-12-08T05:51:58.169Z,24.70
2023-12-08T05:54:26.234Z,21.10
2023-12-08T05:56:54.817Z,20.62
2023-12-08T05:59:22.663Z,18.83
2023-12-08T06:01:50.887Z,20.27
2023-12-08T06:04:19.098Z,21.48
2023-12-08T06:06:47.765Z,18.87
2023-12-08T06:09:17.034Z,18.23
2023-12-08T06:11:45.145Z,17.87
2023-12-08T06:14:13.035Z,17.55
2023-12-08T06:16:41.086Z,18.67
2023-12-08T06:19:10.442Z,22.30
2023-12-08T06:21:38.308Z,22.73
2023-12-08T06:24:06.382Z,23.45
2023-12-08T06:26:34.533Z,26.17
2023-12-08T06:29:04.494Z,27.37
2023-12-08T06:31:34.219Z,23.00
2023-12-08T06:34:10.033Z,24.65
2023-12-08T06:36:48.064Z,24.67
2023-12-08T06:39:19.094Z,24.60
2023-12-08T06:41:48.090Z,23.70
2023-12-08T06:44:15.676Z,23.98
2023-12-08T06:46:44.472Z,22.00
2023-12-08T06:49:12.436Z,21.17
2023-12-08T06:51:40.648Z,24.95
2023-12-08T06:54:08.056Z,24.08
2023-12-08T06:56:36.789Z,25.75
2023-12-08T06:59:04.419Z,24.27
2023-12-08T07:01:32.832Z,24.17
2023-12-08T07:04:00.669Z,30.08
2023-12-08T07:06:28.533Z,27.92
2023-12-08T07:08:56.397Z,28.48
2023-12-08T07:11:24.378Z,27.73
2023-12-08T07:13:51.992Z,29.20
2023-12-08T07:16:19.989Z,32.25
2023-12-08T07:18:48.775Z,31.48
2023-12-08T07:21:16.657Z,32.88
2023-12-08T07:23:43.967Z,36.17
2023-12-08T07:26:11.637Z,36.50
2023-12-08T07:28:39.297Z,33.88
2023-12-08T07:31:06.790Z,34.17
2023-12-08T07:33:34.288Z,35.45
2023-12-08T07:36:02.039Z,34.63
2023-12-08T07:38:30.508Z,33.35
2023-12-08T07:40:57.795Z,35.17
2023-12-08T07:43:25.352Z,33.20
2023-12-08T07:45:54.180Z,27.85
2023-12-08T07:48:21.930Z,28.92
2023-12-08T07:50:49.696Z,29.40
2023-12-08T07:53:17.557Z,27.83
2023-12-08T07:55:46.009Z,30.12
2023-12-08T07:58:13.655Z,32.30
2023-12-08T08:00:41.093Z,33.78
2023-12-08T08:03:08.811Z,37.63
2023-12-08T08:05:36.826Z,25.70
2023-12-08T08:08:05.825Z,24.20
2023-12-08T08:10:35.334Z,24.98
2023-12-08T08:13:03.039Z,28.60
2023-12-08T08:15:30.305Z,22.67
2023-12-08T08:17:58.100Z,21.12
2023-12-08T08:20:27.379Z,23.92
2023-12-08T08:22:55.388Z,24.63
2023-12-08T08:25:23.070Z,25.17
2023-12-08T08:27:54.403Z,24.65
2023-12-08T08:30:22.114Z,25.67
2023-12-08T08:32:50.079Z,25.65
2023-12-08T08:35:17.374Z,26.65
2023-12-08T08:37:46.004Z,28.45
2023-12-08T08:40:13.601Z,27.58
2023-12-08T08:42:41.059Z,26.90
2023-12-08T08:45:08.971Z,27.13
2023-12-08T08:47:36.768Z,26.92
2023-12-08T08:50:04.438Z,26.77
2023-12-08T08:52:32.163Z,27.80
2023-12-08T08:54:59.777Z,28.15
2023-12-08T08:57:27.317Z,25.73
2023-12-08T08:59:54.931Z,24.12
2023-12-08T09:02:24.722Z,25.58
2023-12-08T09:08:22.408Z,25.60
2023-12-08T09:10:51.760Z,24.50
2023-12-08T09:13:20.880Z,25.90
2023-12-08T09:15:50.748Z,24.85
2023-12-08T09:18:18.985Z,24.35
2023-12-08T09:20:47.124Z,22.62
2023-12-08T09:23:14.993Z,23.90
2023-12-08T09:25:43.133Z,28.65
2023-12-08T09:28:10.931Z,29.20
2023-12-08T09:30:38.739Z,34.75
2023-12-08T09:33:10.845Z,38.20
2023-12-08T09:35:39.127Z,37.17
2023-12-08T09:38:10.790Z,41.95
2023-12-08T09:40:43.141Z,38.33
2023-12-08T09:43:19.901Z,33.08
2023-12-08T09:45:48.764Z,32.15
2023-12-08T09:48:18.007Z,35.50
2023-12-08T09:50:46.008Z,32.55
2023-12-08T09:53:14.022Z,30.75
2023-12-08T09:55:42.276Z,27.35
2023-12-08T09:58:11.619Z,29.05
2023-12-08T10:00:43.719Z,21.58
2023-12-08T10:03:13.955Z,23.70
2023-12-08T10:09:18.353Z,22.27
2023-12-08T10:11:46.649Z,21.92
2023-12-08T10:14:15.874Z,21.10
2023-12-08T10:16:45.110Z,21.85
2023-12-08T10:19:15.963Z,20.48
2023-12-08T10:21:43.908Z,19.95
2023-12-08T10:24:11.815Z,21.87
2023-12-08T10:26:40.803Z,21.33
2023-12-08T10:29:14.706Z,21.58
2023-12-08T10:31:43.327Z,21.58
2023-12-08T10:34:11.894Z,21.80
2023-12-08T10:36:41.577Z,21.08
2023-12-08T10:39:10.039Z,20.10
2023-12-08T10:41:37.984Z,20.20
2023-12-08T10:44:09.902Z,20.98
2023-12-08T10:46:38.280Z,22.15
2023-12-08T10:49:06.612Z,21.10
2023-12-08T10:51:35.472Z,21.48
2023-12-08T10:54:04.873Z,21.98
2023-12-08T10:56:32.811Z,22.15
2023-12-08T10:59:03.661Z,22.90
2023-12-08T11:01:35.951Z,24.65
2023-12-08T11:04:07.053Z,22.33
2023-12-08T11:06:43.460Z,22.45
2023-12-08T11:09:13.714Z,23.42
2023-12-08T11:11:52.232Z,22.42
2023-12-08T11:14:33.949Z,23.42
2023-12-08T11:17:05.601Z,22.23
2023-12-08T11:19:35.069Z,21.55
2023-12-08T11:22:03.487Z,21.63
2023-12-08T11:24:33.223Z,22.42
2023-12-08T11:27:03.912Z,22.35
2023-12-08T11:29:47.957Z,22.37
2023-12-08T11:32:39.873Z,20.85
2023-12-08T11:35:11.978Z,21.33
2023-12-08T11:37:39.565Z,21.45
2023-12-08T11:40:12.352Z,21.17
2023-12-08T11:42:42.974Z,19.83
2023-12-08T11:45:13.976Z,21.25
2023-12-08T11:47:43.729Z,20.80
2023-12-08T11:50:12.831Z,20.48
2023-12-08T11:52:43.133Z,21.87
2023-12-08T11:55:21.717Z,21.23
2023-12-08T11:58:03.386Z,19.83
2023-12-08T12:00:34.290Z,21.30
2023-12-08T12:03:06.521Z,20.23
2023-12-08T12:05:34.323Z,22.70
2023-12-08T12:08:03.217Z,22.92
2023-12-08T12:10:35.347Z,24.05
2023-12-08T12:13:09.116Z,22.58
2023-12-08T12:15:39.320Z,23.65
2023-12-08T12:18:07.103Z,22.87
2023-12-08T12:20:36.127Z,23.10
2023-12-08T12:23:04.199Z,21.35
2023-12-08T12:25:33.718Z,23.92
2023-12-08T12:28:01.359Z,24.05
2023-12-08T12:30:28.888Z,22.33
2023-12-08T12:32:59.146Z,22.13
2023-12-08T12:35:27.390Z,22.55
2023-12-08T12:37:55.938Z,22.87
2023-12-08T12:40:26.519Z,21.45
2023-12-08T12:42:54.224Z,22.52
2023-12-08T12:45:33.453Z,21.70
2023-12-08T12:48:04.653Z,23.70
2023-12-08T12:50:32.404Z,22.92
2023-12-08T12:53:06.684Z,23.67
2023-12-08T12:55:35.843Z,22.95
2023-12-08T12:58:04.193Z,23.60
2023-12-08T13:00:39.262Z,24.08
2023-12-08T13:03:11.795Z,22.48
2023-12-08T13:05:54.199Z,23.62
2023-12-08T13:08:23.115Z,22.85
2023-12-08T13:10:53.012Z,21.85
2023-12-08T13:13:23.693Z,21.98
2023-12-08T13:15:52.616Z,21.70
2023-12-08T13:18:24.509Z,22.05
2023-12-08T13:24:22.798Z,23.17
2023-12-08T13:26:53.251Z,21.62
2023-12-08T13:29:20.635Z,22.90
2023-12-08T13:31:48.532Z,23.52
2023-12-08T13:34:17.520Z,22.70
2023-12-08T13:36:46.352Z,23.27
2023-12-08T13:39:14.034Z,23.50
2023-12-08T13:41:47.483Z,23.65
2023-12-08T13:44:15.938Z,22.83
2023-12-08T13:46:43.636Z,21.75
2023-12-08T13:49:12.819Z,21.30
2023-12-08T13:51:42.230Z,23.05
2023-12-08T13:54:10.922Z,23.50
2023-12-08T13:56:45.415Z,22.92
2023-12-08T13:59:25.582Z,22.85
2023-12-08T14:01:53.695Z,20.65
2023-12-08T14:04:22.012Z,22.90
2023-12-08T14:06:50.783Z,22.98
2023-12-08T14:09:19.680Z,24.67
2023-12-08T14:11:49.883Z,25.30
2023-12-08T14:14:19.735Z,22.48
2023-12-08T14:16:48.867Z,22.17
2023-12-08T14:19:17.762Z,25.25
2023-12-08T14:21:47.459Z,25.95
2023-12-08T14:24:15.669Z,23.30
2023-12-08T14:26:46.482Z,21.42
2023-12-08T14:29:15.308Z,21.87
2023-12-08T14:31:45.539Z,23.33
2023-12-08T14:34:13.406Z,21.62
2023-12-08T14:36:42.017Z,22.15
2023-12-08T14:39:11.629Z,21.55
2023-12-08T14:41:42.676Z,20.83
2023-12-08T14:44:13.892Z,19.70
2023-12-08T15:00:24.149Z,22.42
2023-12-08T15:02:52.062Z,22.75
2023-12-08T15:08:50.865Z,25.50
2023-12-08T15:11:21.740Z,27.40
2023-12-08T15:13:50.821Z,24.30
2023-12-08T15:16:19.435Z,24.75
2023-12-08T15:18:46.940Z,25.35
2023-12-08T15:21:22.542Z,22.50
2023-12-08T15:23:58.083Z,25.45
2023-12-08T15:26:40.036Z,22.02
2023-12-08T15:29:08.380Z,22.62
2023-12-08T15:35:08.235Z,23.02
2023-12-08T15:41:06.800Z,22.05
2023-12-08T15:43:42.254Z,22.60
2023-12-08T15:46:10.925Z,23.23
2023-12-08T15:48:42.548Z,21.40
2023-12-08T15:51:14.481Z,22.10
2023-12-08T15:53:46.052Z,30.02
2023-12-08T15:56:13.709Z,21.05
2023-12-08T15:58:42.328Z,20.08
2023-12-08T16:01:17.602Z,22.08
2023-12-08T16:03:45.559Z,21.05
2023-12-08T16:06:17.867Z,20.33
2023-12-08T16:08:46.364Z,18.42
2023-12-08T16:11:24.209Z,17.83
2023-12-08T16:13:53.475Z,18.83
2023-12-08T16:16:22.299Z,19.40
2023-12-08T16:18:50.456Z,23.55
2023-12-08T16:21:25.938Z,24.17
2023-12-08T16:27:24.489Z,20.65
2023-12-08T16:29:52.309Z,17.10
2023-12-08T16:32:19.622Z,19.45
2023-12-08T16:34:54.883Z,16.50
2023-12-08T16:37:22.390Z,17.25
2023-12-08T16:39:49.907Z,13.75
2023-12-08T16:42:20.374Z,15.90
2023-12-08T16:44:50.641Z,15.30
2023-12-08T16:47:18.262Z,13.13
2023-12-08T16:49:45.620Z,13.52
2023-12-08T16:52:13.331Z,14.18
2023-12-08T16:54:40.553Z,13.62
2023-12-08T16:57:10.787Z,16.70
2023-12-08T16:59:41.612Z,14.13
2023-12-08T17:02:09.413Z,13.98
2023-12-08T17:04:36.659Z,14.75
2023-12-08T17:07:04.706Z,14.48
2023-12-08T17:09:32.798Z,13.98
2023-12-08T17:12:00.132Z,15.00
2023-12-08T17:14:36.964Z,16.10
2023-12-08T17:17:04.489Z,14.18
2023-12-08T17:19:32.410Z,13.98
2023-12-08T17:22:00.350Z,13.82
2023-12-08T17:24:30.095Z,13.57
2023-12-08T17:27:00.552Z,14.15
2023-12-08T17:29:31.339Z,10.32
2023-12-08T17:31:59.300Z,10.77
2023-12-08T17:34:26.726Z,10.30
2023-12-08T17:36:54.311Z,10.50
2023-12-08T17:39:21.864Z,11.15
2023-12-08T17:41:49.331Z,11.95
2023-12-08T17:44:16.871Z,11.65
2023-12-08T17:46:45.104Z,11.25
2023-12-08T17:49:13.207Z,12.63
2023-12-08T17:51:40.612Z,11.52
2023-12-08T17:54:08.270Z,12.20
2023-12-08T17:56:39.847Z,12.90
2023-12-08T17:59:07.606Z,13.15
2023-12-08T18:01:34.826Z,12.05
2023-12-08T18:04:04.589Z,12.30
2023-12-08T18:06:34.970Z,12.93
2023-12-08T18:09:06.359Z,13.60
2023-12-08T18:11:35.096Z,13.62
2023-12-08T18:14:06.534Z,24.48
2023-12-08T18:16:39.247Z,17.73
2023-12-08T18:19:08.170Z,21.10
2023-12-08T18:25:06.053Z,16.05
2023-12-08T18:31:27.951Z,17.60
2023-12-08T18:33:58.315Z,18.25
2023-12-08T18:39:56.595Z,15.65
2023-12-08T18:45:59.319Z,16.15
2023-12-08T18:49:07.604Z,24.10
2023-12-08T18:51:46.364Z,22.42
2023-12-08T18:57:44.061Z,22.33
2023-12-08T19:00:13.042Z,24.90
2023-12-08T19:06:12.393Z,25.08
2023-12-08T19:08:40.839Z,23.92
2023-12-08T19:14:39.544Z,23.30
2023-12-08T19:20:42.360Z,22.05
2023-12-08T19:26:41.465Z,27.37
2023-12-08T19:29:08.920Z,24.25
2023-12-08T19:31:36.836Z,21.87
2023-12-08T19:34:04.260Z,22.45
2023-12-08T19:36:31.937Z,21.15
2023-12-08T19:39:01.046Z,20.83
2023-12-08T19:41:28.906Z,24.35
2023-12-08T19:43:56.551Z,20.65
2023-12-08T19:46:23.711Z,18.75
2023-12-08T19:48:51.319Z,23.50
2023-12-08T19:51:19.012Z,24.25
2023-12-08T19:53:46.512Z,24.35
2023-12-08T19:56:14.171Z,26.12
2023-12-08T19:58:42.554Z,22.62
2023-12-08T20:01:09.944Z,22.37
2023-12-08T20:03:37.732Z,23.70
2023-12-08T20:06:05.566Z,24.92
2023-12-08T20:08:33.067Z,25.85
2023-12-08T20:11:02.181Z,24.73
2023-12-08T20:13:32.684Z,26.10
2023-12-08T20:16:02.507Z,27.67
2023-12-08T20:18:35.047Z,28.45
2023-12-08T20:21:03.781Z,25.23
2023-12-08T20:23:35.645Z,25.80
2023-12-08T20:26:04.107Z,24.05
2023-12-08T20:28:33.841Z,23.45
2023-12-08T20:31:04.428Z,21.70
2023-12-08T20:33:32.350Z,29.00
2023-12-08T20:36:02.030Z,24.98
2023-12-08T20:38:29.705Z,23.85
2023-12-08T20:40:59.054Z,25.58
2023-12-08T20:43:26.717Z,24.95
2023-12-08T20:45:54.654Z,24.10
2023-12-08T20:48:36.376Z,22.45
2023-12-08T20:57:55.563Z,19.77
2023-12-08T21:00:24.570Z,19.33
2023-12-08T21:02:52.671Z,18.92
2023-12-08T21:05:20.457Z,19.67
2023-12-08T21:07:48.559Z,19.62
2023-12-08T21:10:16.500Z,17.92
2023-12-08T21:12:45.977Z,21.77
2023-12-08T21:15:15.098Z,19.50
2023-12-08T21:17:42.935Z,20.08
2023-12-08T21:20:11.304Z,17.27
2023-12-08T21:22:41.244Z,18.08
2023-12-08T21:25:10.365Z,15.85
2023-12-08T21:27:39.600Z,16.83
2023-12-08T21:30:09.493Z,16.77
2023-12-08T21:32:39.720Z,16.30
2023-12-08T21:35:08.289Z,16.58
2023-12-08T21:44:41.529Z,16.65
2023-12-08T21:47:09.888Z,16.70
2023-12-08T21:49:42.619Z,17.05
2023-12-08T21:52:27.248Z,17.02
2023-12-08T21:55:41.029Z,16.85
2023-12-08T22:01:38.118Z,16.15
2023-12-08T22:07:36.320Z,15.13
2023-12-08T22:10:07.335Z,17.37
2023-12-08T22:12:35.009Z,19.37
2023-12-08T22:15:02.695Z,18.48
2023-12-08T22:17:33.446Z,18.45
2023-12-08T22:20:02.959Z,18.27
2023-12-08T22:22:32.499Z,17.02
2023-12-08T22:25:01.666Z,16.00
2023-12-08T22:27:31.757Z,17.25
2023-12-08T22:29:59.898Z,18.37
2023-12-08T22:32:27.919Z,18.30
2023-12-08T22:34:56.561Z,16.20
2023-12-08T22:37:24.840Z,18.90
2023-12-08T22:39:54.265Z,19.12
2023-12-08T22:42:22.527Z,17.40
2023-12-08T22:44:50.565Z,18.12
2023-12-08T22:47:18.632Z,17.45
2023-12-08T22:49:48.439Z,18.33
2023-12-08T22:52:16.029Z,15.45
2023-12-08T22:54:44.443Z,19.08
2023-12-08T22:57:11.882Z,17.52
2023-12-08T22:59:39.473Z,17.45
2023-12-08T23:02:07.507Z,17.90
2023-12-08T23:04:35.010Z,17.55
2023-12-08T23:07:03.054Z,17.83
2023-12-08T23:09:30.497Z,17.10
2023-12-08T23:11:58.213Z,15.02
2023-12-08T23:14:25.700Z,16.77
2023-12-08T23:16:53.424Z,14.27
2023-12-08T23:19:22.344Z,15.40
2023-12-08T23:21:50.370Z,15.52
2023-12-08T23:24:18.538Z,14.15
2023-12-08T23:26:46.579Z,15.73
2023-12-08T23:29:15.682Z,16.50
2023-12-08T23:31:43.346Z,15.32
2023-12-08T23:34:10.961Z,15.70
2023-12-08T23:36:39.072Z,17.30
2023-12-08T23:39:06.768Z,16.30
2023-12-08T23:41:34.473Z,15.07
2023-12-08T23:44:02.025Z,15.75
2023-12-08T23:46:30.234Z,15.43
2023-12-08T23:48:57.884Z,15.70
2023-12-08T23:51:26.879Z,14.77
2023-12-08T23:53:54.764Z,14.18
2023-12-08T23:56:23.867Z,13.43
2023-12-08T23:58:51.927Z,14.40
